Bandon, OR

9:34 PM PDT on September 01, 2014 (GMT -0700)
KORBANDO2 | Change Station
CLOSE
Current Station
Personal Weather Station
Location: Bandon, OR
Elevation: 77 ft
Nearby Weather Stations

Elev 77 ft 43.12 °N, 124.43 °W | Updated 12 seconds ago

Clear
Clear
55.7 °F
Feels Like 55.7 °F
N
6.0
Wind Variable Wind from North
Gusts 8.0 mph

Today
High -- | Low -- °F
--% Chance of Precip.
Yesterday
High -- | Low -- °F
Precip. -- in
6:42 AM 7:52 PM
Waxing Crescent, 47% visible
Pressure 29.97 in
Visibility 10.0 miles
Clouds Clear
Dew Point Not available.
Humidity Not available.
Rainfall 0.00 in
Snow Depth Not available.
UV 0 out of 12
Pollen 2.90 out of 12
Air Quality Not available.
Flu Activity Not available.
METAR KOTH 020415Z 36015G19KT 10SM CLR 17/17 A2997 RMK AO1

More Conditions Fewer Conditions

Pressure 29.97 in
Visibility 10.0 miles
Clouds Clear
Dew Point Not available.
Humidity Not available.
Rainfall 0.00 in
Snow Depth Not available.
UV 0 out of 12
Pollen 2.90 out of 12
Air Quality Not available.
Flu Activity Not available.
METAR KOTH 020415Z 36015G19KT 10SM CLR 17/17 A2997 RMK AO1

More Conditions Fewer Conditions

10-Day Weather Forecast

Almanac

Astronomy

Sep. 01, 2014 Rise Set
Actual Time 6:42 AM PDT 7:52 PM PDT
Civil Twilight 6:12 AM PDT 8:21 PM PDT
Nautical Twilight 5:37 AM PDT 8:56 PM PDT
Astronomical Twilight 5:00 AM PDT 9:33 PM PDT
Moon 1:44 PM PDT (9/1) 11:47 PM PDT (9/1)
Length of Visible Light 14h 08m
Length of Day
13h 10m
Tomorrow will be 2m 50s shorter.
Waxing Crescent, 47% of the Moon is Illuminated
Sep 2
Waxing Crescent
Sep 2
First Quarter
Sep 8
Full
Sep 15
Last Quarter
Sep 24
New

Today's Extremes

State Highs State Lows

Community

WunderPhotos

Upload Photos

1,749,566 photos uploaded!

WunderBlogs® & News

Nearby

Snow Depth

Station Depth Elevation
Bigelow Camp 1 in 5120 ft
Holland Meadows 0 in 4900 ft
Fish Lake 0 in 4665 ft
Diamond Lake 0 in 5315 ft
Sevenmile Marsh 0 in 6200 ft

Earthquake Activity

City Distance Mag. Time & Date
No recent earthquake activity has been reported nearby.
Minimum magnitude displayed is 2.5.

Coastal Water Temperatures

Place Temperature
Port Orford, OR 52.0 °F
Charleston, OR 55.0 °F
South Beach, OR 55.9 °F

Nearby Weather Stations